createdAt,value
2023-03-26T00:02:21.001Z,12.12
2023-03-26T00:04:53.432Z,12.20
2023-03-26T00:07:23.883Z,12.03
2023-03-26T00:09:51.856Z,12.07
2023-03-26T00:12:20.367Z,11.85
2023-03-26T00:14:48.906Z,12.12
2023-03-26T00:17:21.351Z,12.09
2023-03-26T00:19:50.010Z,12.13
2023-03-26T00:22:17.997Z,11.81
2023-03-26T00:24:49.450Z,11.97
2023-03-26T00:27:21.525Z,12.04
2023-03-26T00:29:50.995Z,11.92
2023-03-26T00:32:18.709Z,11.59
2023-03-26T00:34:48.161Z,11.48
2023-03-26T00:37:15.968Z,11.64
2023-03-26T00:39:50.896Z,11.32
2023-03-26T00:42:19.271Z,11.59
2023-03-26T00:44:47.742Z,11.35
2023-03-26T00:47:16.124Z,11.45
2023-03-26T00:49:46.899Z,11.25
2023-03-26T00:52:21.046Z,11.18
2023-03-26T00:54:52.395Z,11.40
2023-03-26T00:57:34.556Z,11.45
2023-03-26T01:00:15.902Z,11.54
2023-03-26T01:02:45.250Z,11.04
2023-03-26T01:05:35.139Z,11.28
2023-03-26T01:08:16.890Z,11.52
2023-03-26T01:10:50.891Z,11.57
2023-03-26T01:13:23.920Z,11.34
2023-03-26T01:15:53.139Z,11.35
2023-03-26T01:18:26.441Z,11.09
2023-03-26T01:20:58.575Z,11.37
2023-03-26T01:23:41.671Z,11.31
2023-03-26T01:26:40.969Z,11.22
2023-03-26T01:29:37.622Z,11.22
2023-03-26T01:32:19.280Z,11.61
2023-03-26T01:35:00.497Z,11.54
2023-03-26T01:37:47.139Z,11.39
2023-03-26T01:40:19.114Z,11.81
2023-03-26T01:42:54.189Z,11.73
2023-03-26T01:45:25.731Z,11.76
2023-03-26T01:47:55.082Z,11.60
2023-03-26T01:50:22.684Z,11.69
2023-03-26T01:52:51.879Z,11.69
2023-03-26T01:55:22.529Z,11.70
2023-03-26T01:58:09.949Z,11.76
2023-03-26T02:01:02.900Z,11.83
2023-03-26T02:03:33.838Z,11.80
2023-03-26T02:06:16.664Z,11.61
2023-03-26T02:08:54.178Z,11.61
2023-03-26T02:11:23.500Z,11.87
2023-03-26T02:13:51.865Z,11.66
2023-03-26T02:16:21.047Z,11.46
2023-03-26T02:18:51.554Z,11.38
2023-03-26T02:21:26.194Z,11.54
2023-03-26T02:24:14.673Z,11.82
2023-03-26T02:26:43.007Z,11.52
2023-03-26T02:29:14.102Z,11.62
2023-03-26T02:31:43.659Z,11.66
2023-03-26T02:34:11.588Z,11.91
2023-03-26T02:36:43.038Z,11.57
2023-03-26T02:39:11.963Z,11.39
2023-03-26T02:41:40.040Z,11.35
2023-03-26T02:44:09.213Z,11.25
2023-03-26T02:46:40.925Z,11.26
2023-03-26T02:49:10.497Z,11.09
2023-03-26T02:51:39.479Z,11.22
2023-03-26T02:54:07.325Z,11.12
2023-03-26T02:56:35.706Z,10.86
2023-03-26T02:59:11.044Z,10.88
2023-03-26T03:01:47.901Z,10.85
2023-03-26T03:04:18.021Z,10.79
2023-03-26T03:06:45.964Z,10.81
2023-03-26T03:09:14.129Z,10.67
2023-03-26T03:11:46.555Z,10.65
2023-03-26T03:14:14.474Z,10.66
2023-03-26T03:16:42.808Z,10.53
2023-03-26T03:19:11.862Z,10.39
2023-03-26T03:21:40.991Z,10.35
2023-03-26T03:24:09.415Z,10.35
2023-03-26T03:26:37.770Z,10.35
2023-03-26T03:29:12.976Z,10.20
2023-03-26T03:31:41.437Z,10.13
2023-03-26T03:34:11.561Z,10.13
2023-03-26T03:36:40.170Z,10.12
2023-03-26T03:39:09.012Z,10.05
2023-03-26T03:41:37.130Z,9.68
2023-03-26T03:44:06.469Z,9.63
2023-03-26T03:46:35.708Z,9.76
2023-03-26T03:49:04.376Z,9.90
2023-03-26T03:51:32.413Z,9.84
2023-03-26T03:54:02.001Z,9.75
2023-03-26T03:56:31.402Z,9.72
2023-03-26T03:59:04.767Z,9.68
2023-03-26T04:01:36.509Z,9.67
2023-03-26T04:04:11.286Z,9.57
2023-03-26T04:06:39.573Z,9.52
2023-03-26T04:09:10.066Z,9.45
2023-03-26T04:11:39.557Z,9.42
2023-03-26T04:14:10.569Z,9.46
2023-03-26T04:16:39.094Z,9.57
2023-03-26T04:19:07.046Z,9.30
2023-03-26T04:21:37.853Z,9.29
2023-03-26T04:24:07.462Z,9.12
2023-03-26T04:26:38.557Z,9.09
2023-03-26T04:29:12.015Z,9.09
2023-03-26T04:31:41.133Z,8.88
2023-03-26T04:34:24.309Z,9.02
2023-03-26T04:36:56.256Z,8.75
2023-03-26T04:39:29.334Z,8.60
2023-03-26T04:42:15.846Z,8.75
2023-03-26T04:44:44.484Z,8.75
2023-03-26T04:47:13.622Z,8.69
2023-03-26T04:49:42.006Z,8.61
2023-03-26T04:52:12.447Z,8.75
2023-03-26T04:54:46.335Z,8.96
2023-03-26T04:57:24.325Z,8.69
2023-03-26T04:59:53.256Z,8.93
2023-03-26T05:02:21.364Z,8.87
2023-03-26T05:04:50.966Z,8.70
2023-03-26T05:07:22.544Z,8.70
2023-03-26T05:10:04.955Z,8.71
2023-03-26T05:12:35.170Z,8.86
2023-03-26T05:15:05.998Z,9.06
2023-03-26T05:17:35.182Z,9.06
2023-03-26T05:20:05.209Z,9.28
2023-03-26T05:22:33.772Z,9.46
2023-03-26T05:25:08.496Z,9.48
2023-03-26T05:27:37.481Z,9.52
2023-03-26T05:30:07.274Z,9.59
2023-03-26T05:32:37.091Z,9.67
2023-03-26T05:35:20.056Z,9.78
2023-03-26T05:37:51.983Z,9.86
2023-03-26T05:40:21.881Z,9.91
2023-03-26T05:42:51.367Z,9.92
2023-03-26T05:45:22.517Z,9.91
2023-03-26T05:47:55.100Z,10.22
2023-03-26T05:50:34.017Z,10.29
2023-03-26T05:53:02.716Z,10.24
2023-03-26T05:55:37.102Z,10.31
2023-03-26T05:58:13.202Z,10.39
2023-03-26T06:00:55.404Z,10.38
2023-03-26T06:03:25.571Z,10.32
2023-03-26T06:06:00.893Z,10.43
2023-03-26T06:11:08.350Z,10.95
2023-03-26T06:13:37.893Z,11.15
2023-03-26T06:16:26.596Z,11.29
2023-03-26T06:19:08.841Z,11.36
2023-03-26T06:21:45.342Z,11.40
2023-03-26T06:24:20.804Z,11.60
2023-03-26T06:26:50.119Z,11.69
2023-03-26T06:29:22.230Z,11.77
2023-03-26T06:32:12.349Z,11.98
2023-03-26T06:35:01.979Z,12.19
2023-03-26T06:37:31.237Z,12.47
2023-03-26T06:40:00.893Z,12.38
2023-03-26T06:43:08.625Z,12.50
2023-03-26T06:45:35.945Z,12.58
2023-03-26T06:50:49.029Z,12.93
2023-03-26T06:53:19.393Z,13.27
2023-03-26T06:55:54.031Z,13.13
2023-03-26T06:58:25.300Z,13.58
2023-03-26T07:00:59.718Z,13.61
2023-03-26T07:03:55.170Z,13.89
2023-03-26T07:06:39.043Z,13.96
2023-03-26T07:09:10.672Z,14.11
2023-03-26T07:11:41.734Z,13.78
2023-03-26T07:14:13.902Z,13.45
2023-03-26T07:16:51.931Z,13.21
2023-03-26T07:19:30.199Z,13.17
2023-03-26T07:22:02.378Z,13.41
2023-03-26T07:24:36.172Z,13.32
2023-03-26T07:27:37.208Z,13.22
2023-03-26T07:30:30.567Z,13.33
2023-03-26T07:33:54.008Z,13.82
2023-03-26T07:36:38.092Z,13.61
2023-03-26T07:39:25.356Z,13.63
2023-03-26T07:42:24.961Z,14.24
2023-03-26T07:45:35.968Z,13.86
2023-03-26T07:48:13.387Z,13.83
2023-03-26T07:50:49.062Z,14.06
2023-03-26T07:53:30.115Z,13.85
2023-03-26T07:56:18.037Z,13.37
2023-03-26T07:58:59.039Z,13.81
2023-03-26T08:02:12.662Z,13.92
2023-03-26T08:05:21.890Z,14.39
2023-03-26T08:07:56.781Z,13.87
2023-03-26T08:10:51.990Z,14.07
2023-03-26T08:19:34.724Z,14.30
2023-03-26T08:22:13.011Z,14.43
2023-03-26T08:25:17.698Z,14.73
2023-03-26T08:28:12.066Z,14.98
2023-03-26T08:30:47.301Z,14.92
2023-03-26T08:33:20.877Z,15.03
2023-03-26T08:38:27.989Z,15.05
2023-03-26T08:44:20.653Z,14.80
2023-03-26T08:47:17.307Z,14.87
2023-03-26T08:50:21.162Z,15.05
2023-03-26T08:56:14.923Z,15.40
2023-03-26T08:59:08.200Z,15.38
2023-03-26T09:01:39.774Z,15.46
2023-03-26T09:04:11.347Z,15.16
2023-03-26T09:07:10.013Z,15.65
2023-03-26T09:10:19.821Z,15.71
2023-03-26T09:13:06.896Z,16.23
2023-03-26T09:16:14.983Z,15.86
2023-03-26T09:18:54.933Z,15.92
2023-03-26T09:22:24.200Z,16.09
2023-03-26T09:25:18.333Z,16.66
2023-03-26T09:27:49.327Z,16.76
2023-03-26T09:30:46.141Z,16.37
2023-03-26T09:36:24.967Z,17.47
2023-03-26T09:39:22.617Z,17.29
2023-03-26T09:42:10.273Z,17.03
2023-03-26T09:45:09.928Z,17.18
2023-03-26T09:48:06.926Z,17.42
2023-03-26T09:51:04.903Z,17.76
2023-03-26T09:53:50.243Z,17.98
2023-03-26T09:56:32.087Z,17.77
2023-03-26T09:59:29.414Z,17.68
2023-03-26T10:05:20.903Z,17.45
2023-03-26T10:08:05.190Z,17.64
2023-03-26T10:10:52.663Z,17.30
2023-03-26T10:13:33.498Z,16.97
2023-03-26T10:16:36.723Z,15.99
2023-03-26T10:19:30.247Z,16.03
2023-03-26T10:22:06.406Z,16.69
2023-03-26T10:27:44.548Z,15.95
2023-03-26T10:30:14.501Z,15.54
2023-03-26T10:33:12.931Z,16.06
2023-03-26T10:35:57.146Z,16.15
2023-03-26T10:38:47.934Z,16.18
2023-03-26T10:41:30.168Z,16.23
2023-03-26T10:44:26.427Z,16.33
2023-03-26T10:47:20.012Z,16.23
2023-03-26T10:50:22.994Z,16.38
2023-03-26T10:53:26.041Z,16.10
2023-03-26T10:56:27.283Z,16.29
2023-03-26T10:58:58.286Z,16.24
2023-03-26T11:01:44.106Z,16.23
2023-03-26T11:04:41.519Z,16.37
2023-03-26T11:07:28.946Z,16.50
2023-03-26T11:10:12.885Z,16.45
2023-03-26T11:18:48.313Z,16.06
2023-03-26T11:21:47.294Z,15.87
2023-03-26T11:24:41.913Z,16.05
2023-03-26T11:27:28.954Z,16.62
2023-03-26T11:30:16.922Z,16.61
2023-03-26T11:33:03.932Z,15.66
2023-03-26T11:35:40.639Z,16.20
2023-03-26T11:38:40.944Z,16.65
2023-03-26T11:41:16.918Z,16.99
2023-03-26T11:44:12.924Z,16.63
2023-03-26T11:46:51.220Z,17.26
2023-03-26T11:49:26.422Z,17.15
2023-03-26T11:51:56.951Z,17.19
2023-03-26T11:54:24.901Z,17.57
2023-03-26T11:57:05.387Z,18.06
2023-03-26T11:59:56.570Z,18.00
2023-03-26T12:02:25.348Z,18.04
2023-03-26T12:08:19.847Z,18.50
2023-03-26T12:10:59.330Z,18.48
2023-03-26T12:13:29.054Z,18.61
2023-03-26T12:16:13.263Z,18.84
2023-03-26T12:18:46.788Z,18.58
2023-03-26T12:21:29.629Z,19.31
2023-03-26T12:24:10.166Z,19.31
2023-03-26T12:26:46.851Z,20.29
2023-03-26T12:29:21.112Z,20.40
2023-03-26T12:31:57.389Z,20.31
2023-03-26T12:34:37.640Z,20.02
2023-03-26T12:37:07.511Z,19.63
2023-03-26T12:40:10.313Z,19.42
2023-03-26T12:44:47.003Z,19.43
2023-03-26T12:45:43.729Z,19.65
2023-03-26T12:48:16.111Z,19.39
2023-03-26T12:51:11.183Z,18.32
2023-03-26T12:54:01.445Z,18.74
2023-03-26T12:56:38.970Z,18.47
2023-03-26T12:59:49.133Z,18.43
2023-03-26T13:02:31.071Z,18.57
2023-03-26T13:05:48.118Z,18.49
2023-03-26T13:08:41.013Z,18.79
2023-03-26T13:11:58.028Z,19.16
2023-03-26T13:15:02.960Z,18.90
2023-03-26T13:17:37.065Z,18.92
2023-03-26T13:23:12.843Z,19.27
2023-03-26T13:26:06.856Z,19.63
2023-03-26T13:28:52.719Z,19.48
2023-03-26T13:31:30.861Z,19.79
2023-03-26T13:34:30.148Z,20.19
2023-03-26T13:37:01.093Z,20.18
2023-03-26T13:39:53.042Z,20.06
2023-03-26T13:43:02.923Z,20.21
2023-03-26T13:45:49.250Z,20.73
2023-03-26T13:48:23.078Z,20.57
2023-03-26T13:51:01.890Z,20.07
2023-03-26T13:53:47.662Z,19.67
2023-03-26T13:56:19.984Z,19.53
2023-03-26T13:58:54.042Z,20.06
2023-03-26T14:01:35.541Z,20.47
2023-03-26T14:04:19.934Z,19.76
2023-03-26T14:07:01.325Z,19.97
2023-03-26T14:09:51.546Z,19.95
2023-03-26T14:15:40.998Z,20.79
2023-03-26T14:18:34.083Z,20.19
2023-03-26T14:21:34.704Z,20.38
2023-03-26T14:24:16.323Z,19.97
2023-03-26T14:26:46.199Z,19.90
2023-03-26T14:29:23.851Z,19.48
2023-03-26T14:32:30.123Z,19.95
2023-03-26T14:35:41.888Z,20.10
2023-03-26T14:38:54.000Z,20.24
2023-03-26T14:41:33.933Z,19.89
2023-03-26T14:44:28.497Z,20.19
2023-03-26T14:47:15.832Z,19.99
2023-03-26T14:49:55.728Z,19.54
2023-03-26T14:52:42.376Z,19.68
2023-03-26T14:56:13.705Z,19.99
2023-03-26T14:59:05.093Z,20.11
2023-03-26T15:01:49.113Z,19.28
2023-03-26T15:04:49.189Z,19.51
2023-03-26T15:07:34.345Z,19.37
2023-03-26T15:10:15.009Z,19.17
2023-03-26T15:13:34.997Z,18.88
2023-03-26T15:16:28.075Z,19.21
2023-03-26T15:19:35.977Z,19.32
2023-03-26T15:25:11.354Z,18.92
2023-03-26T15:27:52.006Z,19.51
2023-03-26T15:33:28.897Z,19.40
2023-03-26T15:36:21.580Z,18.64
2023-03-26T15:39:34.993Z,19.18
2023-03-26T15:42:12.111Z,18.92
2023-03-26T15:47:43.090Z,19.27
2023-03-26T15:50:48.686Z,19.23
2023-03-26T15:54:01.058Z,18.65
2023-03-26T15:56:49.514Z,18.77
2023-03-26T15:59:53.980Z,18.45
2023-03-26T16:02:34.949Z,18.54
2023-03-26T16:05:22.319Z,18.74
2023-03-26T16:08:03.152Z,18.90
2023-03-26T16:11:02.550Z,18.93
2023-03-26T16:13:38.730Z,19.34
2023-03-26T16:16:16.321Z,18.97
2023-03-26T16:19:21.865Z,19.04
2023-03-26T16:22:01.272Z,19.04
2023-03-26T16:27:32.542Z,18.91
2023-03-26T16:30:09.800Z,18.48
2023-03-26T16:32:50.246Z,18.27
2023-03-26T16:35:54.087Z,18.14
2023-03-26T16:41:34.019Z,18.23
2023-03-26T16:44:14.134Z,18.24
2023-03-26T16:46:54.945Z,17.85
2023-03-26T16:49:31.986Z,18.17
2023-03-26T16:52:19.033Z,18.27
2023-03-26T16:54:52.679Z,18.13
2023-03-26T16:57:41.948Z,17.97
2023-03-26T17:00:17.229Z,17.62
2023-03-26T17:03:25.852Z,17.96
2023-03-26T17:06:45.244Z,17.94
2023-03-26T17:09:24.995Z,17.68
2023-03-26T17:12:19.408Z,17.64
2023-03-26T17:15:16.018Z,17.84
2023-03-26T17:18:03.048Z,17.84
2023-03-26T17:23:43.589Z,17.93
2023-03-26T17:26:23.534Z,17.85
2023-03-26T17:29:09.746Z,17.91
2023-03-26T17:31:48.742Z,17.50
2023-03-26T17:34:40.293Z,17.77
2023-03-26T17:37:28.192Z,17.79
2023-03-26T17:40:27.037Z,17.85
2023-03-26T17:43:11.956Z,18.00
2023-03-26T17:48:29.086Z,17.67
2023-03-26T17:51:04.176Z,17.59
2023-03-26T17:53:38.042Z,17.55
2023-03-26T17:56:16.206Z,17.29
2023-03-26T17:58:56.929Z,17.25
2023-03-26T18:01:46.240Z,17.35
2023-03-26T18:04:32.021Z,17.39
2023-03-26T18:10:36.517Z,17.43
2023-03-26T18:13:28.090Z,17.35
2023-03-26T18:19:00.969Z,17.59
2023-03-26T18:21:40.255Z,17.64
2023-03-26T18:24:21.091Z,17.57
2023-03-26T18:27:12.425Z,17.71
2023-03-26T18:30:02.867Z,17.74
2023-03-26T18:32:42.028Z,17.73
2023-03-26T18:38:00.999Z,17.61
2023-03-26T18:43:35.529Z,17.52
2023-03-26T18:46:09.248Z,17.47
2023-03-26T18:51:11.976Z,17.41
2023-03-26T18:53:55.938Z,17.37
2023-03-26T18:56:37.234Z,17.45
2023-03-26T18:59:38.092Z,17.25
2023-03-26T19:02:18.181Z,17.21
2023-03-26T19:04:56.961Z,17.26
2023-03-26T19:07:39.195Z,17.24
2023-03-26T19:10:27.415Z,17.28
2023-03-26T19:13:09.086Z,17.24
2023-03-26T19:15:36.880Z,17.29
2023-03-26T19:18:14.240Z,17.10
2023-03-26T19:20:45.320Z,17.12
2023-03-26T19:23:25.603Z,17.02
2023-03-26T19:26:02.828Z,17.04
2023-03-26T19:28:41.087Z,17.04
2023-03-26T19:31:21.967Z,16.96
2023-03-26T19:33:58.082Z,16.94
2023-03-26T19:36:37.178Z,16.81
2023-03-26T19:39:27.226Z,16.62
2023-03-26T19:42:16.977Z,16.61
2023-03-26T19:44:52.839Z,16.57
2023-03-26T19:47:43.556Z,16.49
2023-03-26T19:53:16.789Z,16.64
2023-03-26T19:56:07.579Z,16.38
2023-03-26T19:58:47.293Z,16.43
2023-03-26T20:01:32.110Z,16.51
2023-03-26T20:04:05.092Z,16.45
2023-03-26T20:06:44.171Z,16.46
2023-03-26T20:09:24.626Z,16.44
2023-03-26T20:11:58.107Z,16.40
2023-03-26T20:17:14.628Z,16.41
2023-03-26T20:19:48.991Z,16.23
2023-03-26T20:22:26.098Z,16.38
2023-03-26T20:24:55.121Z,16.38
2023-03-26T20:27:30.358Z,16.45
2023-03-26T20:30:05.214Z,16.31
2023-03-26T20:32:36.050Z,16.22
2023-03-26T20:35:35.483Z,16.28
2023-03-26T20:38:17.054Z,16.58
2023-03-26T20:40:49.790Z,16.65
2023-03-26T20:43:20.042Z,16.83
2023-03-26T20:45:52.067Z,16.71
2023-03-26T20:48:27.021Z,16.83
2023-03-26T20:50:55.169Z,16.75
2023-03-26T20:53:25.793Z,16.74
2023-03-26T20:55:55.656Z,16.82
2023-03-26T20:58:30.737Z,16.64
2023-03-26T21:01:03.091Z,16.57
2023-03-26T21:03:32.088Z,16.52
2023-03-26T21:06:05.406Z,16.49
2023-03-26T21:08:34.965Z,16.38
2023-03-26T21:11:08.140Z,16.34
2023-03-26T21:13:58.018Z,16.20
2023-03-26T21:16:28.205Z,16.16
2023-03-26T21:18:57.579Z,16.19
2023-03-26T21:21:48.252Z,16.16
2023-03-26T21:24:22.115Z,16.11
2023-03-26T21:27:33.837Z,16.19
2023-03-26T21:30:16.750Z,15.54
2023-03-26T21:32:46.889Z,15.50
2023-03-26T21:35:17.058Z,14.87
2023-03-26T21:37:48.830Z,15.04
2023-03-26T21:40:21.172Z,15.16
2023-03-26T21:42:53.017Z,15.19
2023-03-26T21:45:21.951Z,15.07
2023-03-26T21:47:52.276Z,15.07
2023-03-26T21:52:57.169Z,15.03
2023-03-26T21:55:25.967Z,14.95
2023-03-26T21:58:28.153Z,14.92
2023-03-26T22:01:19.384Z,14.85
2023-03-26T22:03:48.085Z,14.75
2023-03-26T22:06:27.149Z,14.63
2023-03-26T22:08:55.417Z,14.64
2023-03-26T22:11:25.039Z,14.68
2023-03-26T22:13:57.141Z,14.30
2023-03-26T22:16:27.061Z,14.33
2023-03-26T22:18:58.482Z,14.35
2023-03-26T22:21:28.140Z,14.14
2023-03-26T22:23:55.537Z,13.85
2023-03-26T22:26:24.229Z,13.50
2023-03-26T22:28:53.184Z,13.51
2023-03-26T22:31:26.695Z,13.58
2023-03-26T22:33:59.993Z,13.14
2023-03-26T22:36:28.716Z,13.39
2023-03-26T22:38:57.949Z,13.48
2023-03-26T22:41:25.966Z,13.65
2023-03-26T22:46:31.227Z,13.75
2023-03-26T22:49:00.625Z,13.63
2023-03-26T22:51:31.314Z,13.70
2023-03-26T22:54:03.950Z,13.55
2023-03-26T22:56:32.954Z,13.66
2023-03-26T22:59:00.716Z,13.66
2023-03-26T23:01:30.325Z,13.69
2023-03-26T23:03:59.519Z,13.68
2023-03-26T23:06:27.828Z,13.43
2023-03-26T23:08:57.106Z,13.55
2023-03-26T23:11:25.354Z,13.34
2023-03-26T23:13:56.013Z,13.33
2023-03-26T23:16:23.578Z,13.17
2023-03-26T23:18:52.045Z,13.21
2023-03-26T23:21:21.810Z,13.33
2023-03-26T23:23:54.128Z,13.27
2023-03-26T23:26:22.089Z,13.38
2023-03-26T23:28:51.363Z,13.43
2023-03-26T23:31:19.675Z,13.37
2023-03-26T23:33:47.491Z,13.28
2023-03-26T23:36:18.410Z,13.28
2023-03-26T23:38:48.584Z,13.31
2023-03-26T23:41:28.311Z,13.11
2023-03-26T23:43:56.725Z,13.29
2023-03-26T23:46:30.992Z,13.27
2023-03-26T23:49:00.112Z,13.20
2023-03-26T23:51:30.313Z,12.91
2023-03-26T23:54:00.005Z,13.11
2023-03-26T23:56:29.688Z,13.06
2023-03-26T23:58:58.328Z,13.19
